Time;durP1;ratioP1;P1;durP2;ratioP2;P2;SDS_P1;SDS_P2;PMS_P1;PMS_P2;Temp;Humidity;BMP_temperature;BMP_pressure;BME280_temperature;BME280_humidity;BME280_pressure;Samples;Min_cycle;Max_cycle;Signal;HPM_P1;HPM_P2
2023/05/03 00:00:16;;;;;;;3.67;2.08;;;;;;;12.45;48.94;100258.34;3165902;28;20046;-77
2023/05/03 00:01:48;;;;;;;6.13;2.33;;;;;;;12.45;49.01;100266.19;3165856;28;20134;-77
2023/05/03 00:03:21;;;;;;;4.82;2.00;;;;;;;12.49;48.70;100266.91;3169715;28;20538;-75
2023/05/03 00:04:53;;;;;;;7.15;3.03;;;;;;;12.51;49.08;100262.44;3170168;28;20055;-75
2023/05/03 00:06:25;;;;;;;7.85;2.40;;;;;;;12.49;49.03;100256.44;3170071;28;20067;-75
2023/05/03 00:07:57;;;;;;;5.15;2.35;;;;;;;12.50;48.65;100258.97;3169677;28;20581;-75
2023/05/03 00:09:29;;;;;;;6.95;2.72;;;;;;;12.45;49.21;100250.53;3169097;28;20544;-75
2023/05/03 00:11:00;;;;;;;5.32;2.40;;;;;;;12.48;49.19;100254.72;3169093;28;20075;-75
2023/05/03 00:12:32;;;;;;;7.75;2.10;;;;;;;12.48;48.69;100244.28;3164431;28;20047;-75
2023/05/03 00:14:04;;;;;;;3.85;2.25;;;;;;;12.47;48.79;100245.22;3160030;28;20055;-75
2023/05/03 00:15:37;;;;;;;6.90;2.40;;;;;;;12.47;48.94;100243.44;3169450;28;20083;-75
2023/05/03 00:17:09;;;;;;;3.83;1.60;;;;;;;12.48;48.62;100250.38;3162037;28;20066;-74
2023/05/03 00:18:41;;;;;;;6.68;2.22;;;;;;;12.51;48.69;100251.97;3169773;28;20134;-75
2023/05/03 00:20:14;;;;;;;4.28;1.88;;;;;;;12.51;48.58;100246.75;3170108;28;20059;-75
2023/05/03 00:21:46;;;;;;;8.98;2.60;;;;;;;12.52;48.95;100257.16;3169899;28;20062;-76
2023/05/03 00:23:17;;;;;;;3.40;1.88;;;;;;;12.49;49.04;100262.50;3169527;28;20067;-76
2023/05/03 00:24:50;;;;;;;5.60;1.77;;;;;;;12.49;48.75;100262.50;3169693;28;20052;-76
2023/05/03 00:26:22;;;;;;;3.90;1.70;;;;;;;12.41;48.88;100243.72;3168664;28;20235;-77
2023/05/03 00:27:54;;;;;;;4.00;1.80;;;;;;;12.39;48.74;100240.31;3156626;28;20121;-75
2023/05/03 00:29:26;;;;;;;2.85;1.92;;;;;;;12.48;48.94;100258.22;3165993;28;20100;-76
2023/05/03 00:31:06;;;;;;;5.50;1.58;;;;;;;12.50;48.69;100256.34;3169823;28;20052;-76
2023/05/03 00:32:38;;;;;;;5.47;1.80;;;;;;;12.48;48.70;100245.16;3169621;28;20043;-75
2023/05/03 00:34:10;;;;;;;5.88;1.95;;;;;;;12.51;48.96;100246.75;3170055;28;20070;-76
2023/05/03 00:35:42;;;;;;;6.80;1.92;;;;;;;12.56;48.79;100246.56;3169908;28;20108;-76
2023/05/03 00:37:14;;;;;;;4.20;1.98;;;;;;;12.53;49.01;100251.00;3169397;28;20063;-76
2023/05/03 00:38:46;;;;;;;4.40;1.80;;;;;;;12.43;48.75;100236.66;3152982;28;20051;-76
2023/05/03 00:40:18;;;;;;;4.38;2.25;;;;;;;12.50;49.26;100247.69;3161205;28;20444;-77
2023/05/03 00:41:50;;;;;;;7.20;2.00;;;;;;;12.47;49.12;100246.06;3164968;28;20043;-77
2023/05/03 00:43:21;;;;;;;4.65;1.90;;;;;;;12.42;49.22;100245.44;3164032;28;20047;-76
2023/05/03 00:44:54;;;;;;;5.03;2.60;;;;;;;12.29;49.41;100241.66;3169542;28;20147;-76
2023/05/03 00:46:26;;;;;;;;;;;;;;;12.27;49.22;100246.09;3169822;28;20132;-76
2023/05/03 00:47:59;;;;;;;4.18;1.75;;;;;;;12.19;49.40;100237.78;3169794;28;19920;-76
2023/05/03 00:49:31;;;;;;;7.30;2.50;;;;;;;12.21;49.81;100241.16;3169702;28;20174;-75
2023/05/03 00:51:05;;;;;;;8.68;1.88;;;;;;;12.21;49.94;100252.44;3144605;28;20310;-75
2023/05/03 00:52:38;;;;;;;3.75;1.75;;;;;;;12.17;49.77;100250.06;3169793;28;20792;-75
2023/05/03 00:54:11;;;;;;;7.70;2.63;;;;;;;12.13;49.94;100253.72;3160022;28;20048;-75
2023/05/03 00:55:45;;;;;;;7.80;2.58;;;;;;;11.87;49.96;100215.72;3166200;28;20053;-75
2023/05/03 00:57:17;;;;;;;12.48;2.50;;;;;;;12.07;50.20;100239.19;3167421;28;20043;-75
2023/05/03 00:58:49;;;;;;;8.63;2.35;;;;;;;12.05;50.13;100239.25;3159959;28;20052;-75
2023/05/03 01:00:21;;;;;;;6.32;2.20;;;;;;;12.06;50.18;100230.47;3164491;28;20428;-75
2023/05/03 01:01:54;;;;;;;6.47;2.20;;;;;;;11.85;49.91;100200.13;3164951;28;20387;-75
2023/05/03 01:03:25;;;;;;;5.75;1.90;;;;;;;12.09;50.18;100249.53;3163643;28;20529;-77
2023/05/03 01:04:57;;;;;;;5.53;2.10;;;;;;;12.08;50.21;100256.53;3169484;28;20079;-76
2023/05/03 01:06:37;;;;;;;6.75;2.58;;;;;;;12.06;50.03;100253.97;3169761;28;20100;-76
2023/05/03 01:08:15;;;;;;;6.63;2.13;;;;;;;12.05;49.96;100247.06;3169336;28;20054;-76
2023/05/03 01:09:59;;;;;;;7.90;2.20;;;;;;;12.06;50.12;100248.75;3169427;28;20051;-75
2023/05/03 01:11:42;;;;;;;4.80;2.58;;;;;;;12.06;49.86;100243.53;3165020;28;20051;-75
2023/05/03 01:13:22;;;;;;;6.60;2.22;;;;;;;12.05;50.15;100249.69;3164271;28;20047;-75
2023/05/03 01:15:07;;;;;;;6.07;2.50;;;;;;;12.02;49.95;100247.22;3166194;28;20151;-75
2023/05/03 01:16:48;;;;;;;7.80;2.60;;;;;;;11.96;49.98;100244.88;3164442;28;20150;-75
2023/05/03 01:18:29;;;;;;;9.02;2.83;;;;;;;11.95;49.96;100239.69;3167969;28;20055;-75
2023/05/03 01:20:07;;;;;;;5.75;2.55;;;;;;;11.96;50.36;100246.63;3169197;28;20542;-75
2023/05/03 01:21:41;;;;;;;8.88;2.25;;;;;;;11.98;50.17;100245.66;3169162;28;20116;-75
2023/05/03 01:23:21;;;;;;;7.28;2.67;;;;;;;11.88;50.05;100225.25;3169447;28;20089;-75
2023/05/03 01:25:06;;;;;;;3.92;2.08;;;;;;;11.89;50.39;100225.19;3169590;28;20058;-77
2023/05/03 01:26:38;;;;;;;6.20;1.95;;;;;;;11.98;50.73;100234.34;3171516;28;20139;-76
2023/05/03 01:28:09;;;;;;;7.43;2.05;;;;;;;11.97;51.09;100220.44;3160418;28;20060;-75
2023/05/03 01:29:42;;;;;;;6.25;2.40;;;;;;;11.98;51.53;100218.69;3170262;28;20048;-76
2023/05/03 01:31:17;;;;;;;3.92;1.98;;;;;;;12.00;52.04;100216.88;3171928;28;20503;-75
2023/05/03 01:32:56;;;;;;;9.65;2.70;;;;;;;11.93;52.07;100212.84;3171718;28;20100;-75
2023/05/03 01:34:38;;;;;;;5.70;1.77;;;;;;;12.03;51.91;100222.78;3171876;28;20051;-75
2023/05/03 01:36:15;;;;;;;6.57;1.90;;;;;;;11.97;51.60;100222.22;3171929;28;20051;-74
2023/05/03 01:37:47;;;;;;;4.60;2.10;;;;;;;11.96;51.37;100225.75;3162354;28;20102;-74
2023/05/03 01:39:22;;;;;;;3.80;2.28;;;;;;;11.93;51.09;100231.94;3159069;28;20046;-74
2023/05/03 01:41:00;;;;;;;5.63;2.20;;;;;;;11.90;51.11;100226.88;3168313;28;20444;-74
2023/05/03 01:42:35;;;;;;;3.90;1.60;;;;;;;11.92;50.83;100242.44;3171651;28;20471;-74
2023/05/03 01:44:07;;;;;;;5.03;2.40;;;;;;;11.87;50.74;100231.38;3168238;28;20111;-75
2023/05/03 01:45:39;;;;;;;5.68;1.73;;;;;;;11.90;50.83;100234.69;3171372;28;20056;-75
2023/05/03 01:47:13;;;;;;;9.05;2.28;;;;;;;11.86;50.74;100214.00;3171343;28;20444;-75
2023/05/03 01:48:46;;;;;;;7.47;2.38;;;;;;;11.91;50.86;100225.09;3171706;28;20055;-75
2023/05/03 01:50:18;;;;;;;6.43;2.35;;;;;;;11.87;50.64;100220.94;3171697;28;20185;-75
2023/05/03 01:51:48;;;;;;;4.78;2.08;;;;;;;11.89;50.95;100219.97;3159674;28;20063;-75
2023/05/03 01:53:20;;;;;;;6.80;2.05;;;;;;;11.87;50.95;100216.56;3161119;28;20051;-75
2023/05/03 01:54:52;;;;;;;9.13;2.40;;;;;;;11.86;51.15;100216.63;3162694;28;20440;-75
2023/05/03 01:56:25;;;;;;;5.80;2.35;;;;;;;11.85;50.98;100213.16;3171900;28;20115;-76
2023/05/03 01:57:56;;;;;;;5.63;1.87;;;;;;;11.83;50.67;100209.72;3169150;28;20127;-75
2023/05/03 01:59:28;;;;;;;5.53;2.45;;;;;;;11.77;51.02;100192.63;3160819;28;20548;-75
2023/05/03 02:01:00;;;;;;;3.00;1.85;;;;;;;11.90;50.78;100216.44;3165786;28;20055;-76
2023/05/03 02:02:31;;;;;;;4.22;2.17;;;;;;;11.91;50.83;100207.69;3171464;28;20128;-75
2023/05/03 02:04:03;;;;;;;4.15;1.80;;;;;;;11.87;50.97;100203.50;3171639;28;20056;-76
2023/05/03 02:05:35;;;;;;;4.75;1.67;;;;;;;11.91;50.88;100212.06;3171584;28;20052;-76
2023/05/03 02:07:08;;;;;;;4.80;2.08;;;;;;;11.89;50.78;100214.75;3171766;28;20043;-76
2023/05/03 02:08:39;;;;;;;5.25;2.28;;;;;;;11.86;50.95;100221.84;3169447;28;20130;-75
2023/05/03 02:10:13;;;;;;;5.60;2.22;;;;;;;11.83;50.84;100209.72;3169160;28;20062;-76
2023/05/03 02:11:47;;;;;;;3.83;1.88;;;;;;;11.81;50.76;100211.59;3171216;28;20043;-76
2023/05/03 02:13:19;;;;;;;4.15;1.95;;;;;;;11.76;51.09;100205.72;3165677;28;20044;-76
2023/05/03 02:14:50;;;;;;;7.82;2.42;;;;;;;11.77;51.04;100215.22;3167411;28;20055;-76
2023/05/03 02:16:22;;;;;;;6.13;2.05;;;;;;;11.71;51.69;100202.44;3168467;28;20063;-76
2023/05/03 02:17:54;;;;;;;6.40;2.00;;;;;;;11.78;51.39;100214.31;3166116;28;20073;-76
2023/05/03 02:19:26;;;;;;;6.60;2.50;;;;;;;11.77;51.92;100210.00;3170910;28;20115;-76
2023/05/03 02:20:57;;;;;;;6.28;2.30;;;;;;;11.74;51.86;100216.22;3171552;28;20116;-76
2023/05/03 02:22:29;;;;;;;5.68;2.42;;;;;;;11.75;51.75;100215.31;3171166;28;20059;-76
2023/05/03 02:24:01;;;;;;;9.45;2.72;;;;;;;11.79;51.67;100223.84;3167243;28;20048;-77
2023/05/03 02:25:32;;;;;;;6.32;2.70;;;;;;;11.77;51.72;100223.06;3170962;28;20055;-76
2023/05/03 02:27:06;;;;;;;3.95;2.42;;;;;;;11.80;52.08;100228.13;3171312;28;20096;-77
2023/05/03 02:28:38;;;;;;;6.72;2.95;;;;;;;11.67;52.19;100214.78;3165027;28;20422;-77
2023/05/03 02:30:10;;;;;;;11.40;5.38;;;;;;;11.74;52.02;100231.00;3171350;28;20051;-76
2023/05/03 02:31:42;;;;;;;12.65;5.10;;;;;;;11.65;52.24;100211.38;3171247;28;20056;-76
2023/05/03 02:33:14;;;;;;;11.35;5.28;;;;;;;11.71;52.00;100220.72;3171017;28;20393;-76
2023/05/03 02:34:47;;;;;;;11.15;4.40;;;;;;;11.69;52.24;100214.72;3170845;28;20575;-74
2023/05/03 02:36:19;;;;;;;8.25;4.10;;;;;;;11.68;51.86;100216.47;3158510;28;20048;-76
2023/05/03 02:37:51;;;;;;;9.88;4.18;;;;;;;11.73;51.78;100221.50;3161418;28;20049;-75
2023/05/03 02:39:23;;;;;;;9.80;4.40;;;;;;;11.76;52.08;100219.59;3161732;28;20142;-76
2023/05/03 02:40:54;;;;;;;11.98;4.72;;;;;;;11.77;51.78;100213.47;3167908;28;20063;-76
2023/05/03 02:42:28;;;;;;;10.43;5.25;;;;;;;11.77;51.91;100215.22;3171141;28;20440;-76
2023/05/03 02:43:59;;;;;;;15.77;5.28;;;;;;;11.79;51.67;100210.78;3167740;28;20104;-77
2023/05/03 02:45:31;;;;;;;8.10;3.58;;;;;;;11.79;51.88;100222.06;3170929;28;20051;-77
2023/05/03 02:47:02;;;;;;;9.65;3.13;;;;;;;11.73;52.18;100204.06;3170809;28;20101;-77
2023/05/03 02:48:34;;;;;;;14.15;3.35;;;;;;;11.78;51.98;100209.13;3171152;28;20044;-76
2023/05/03 02:50:06;;;;;;;9.55;3.63;;;;;;;11.72;52.23;100199.78;3171149;28;20043;-77
2023/05/03 02:51:38;;;;;;;10.80;4.10;;;;;;;11.71;51.73;100199.84;3170458;28;20044;-77
2023/05/03 02:53:10;;;;;;;8.32;3.53;;;;;;;11.70;52.07;100204.22;3165224;28;20536;-77
2023/05/03 02:54:42;;;;;;;6.80;3.72;;;;;;;11.70;51.82;100216.41;3161093;28;20055;-76
2023/05/03 02:56:14;;;;;;;6.78;3.75;;;;;;;11.69;52.10;100219.94;3170908;28;20055;-75
2023/05/03 02:57:46;;;;;;;7.65;3.40;;;;;;;11.65;52.29;100229.63;3169555;28;20112;-75
2023/05/03 02:59:18;;;;;;;13.80;3.40;;;;;;;11.58;52.32;100231.66;3158953;28;20533;-75
2023/05/03 03:00:50;;;;;;;7.28;3.28;;;;;;;11.50;52.48;100227.69;3159117;28;20047;-75
2023/05/03 03:02:22;;;;;;;6.05;3.00;;;;;;;11.49;52.79;100239.03;3170909;28;20051;-75
2023/05/03 03:03:53;;;;;;;7.93;3.50;;;;;;;11.47;52.70;100233.03;3170400;28;20047;-75
2023/05/03 03:05:25;;;;;;;6.93;2.90;;;;;;;11.47;53.18;100246.06;3170951;28;20513;-75
2023/05/03 03:06:57;;;;;;;7.03;3.00;;;;;;;11.41;53.29;100244.56;3169193;28;20108;-75
2023/05/03 03:08:29;;;;;;;11.35;3.22;;;;;;;11.42;53.26;100251.50;3158191;28;20044;-74
2023/05/03 03:10:00;;;;;;;11.27;3.83;;;;;;;11.37;53.25;100250.84;3169651;28;20044;-75
2023/05/03 03:11:31;;;;;;;5.53;2.90;;;;;;;11.24;53.64;100239.19;3170640;28;20067;-75
2023/05/03 03:13:05;;;;;;;7.82;3.30;;;;;;;11.30;53.39;100252.00;3166744;28;20116;-75
2023/05/03 03:14:35;;;;;;;;;;;;;;;11.22;53.67;100243.66;3165508;28;20159;-74
2023/05/03 03:16:08;;;;;;;7.07;3.20;;;;;;;11.23;53.47;100245.34;3170353;28;20257;-74
2023/05/03 03:17:40;;;;;;;6.32;2.50;;;;;;;11.21;53.46;100252.34;3163559;28;20503;-75
2023/05/03 03:19:12;;;;;;;6.43;2.60;;;;;;;11.21;53.66;100253.22;3170685;28;20054;-75
2023/05/03 03:20:43;;;;;;;9.20;2.28;;;;;;;11.18;54.03;100253.34;3170250;28;20149;-75
2023/05/03 03:22:15;;;;;;;8.93;2.90;;;;;;;11.11;54.08;100250.13;3166455;28;20040;-75
2023/05/03 03:23:47;;;;;;;5.03;2.47;;;;;;;11.06;54.47;100249.47;3170338;28;20047;-75
2023/05/03 03:25:20;;;;;;;6.45;2.70;;;;;;;11.01;54.30;100256.63;3169863;28;20506;-75
2023/05/03 03:26:52;;;;;;;4.93;2.50;;;;;;;10.99;54.71;100247.16;3170306;28;20141;-75
2023/05/03 03:28:26;;;;;;;7.07;2.60;;;;;;;11.00;54.61;100252.31;3164788;28;20048;-75
2023/05/03 03:29:57;;;;;;;;;;;;;;;10.90;54.52;100248.38;3169782;28;20140;-76
2023/05/03 03:31:29;;;;;;;5.47;2.47;;;;;;;10.88;55.15;100244.97;3160949;28;20394;-75
2023/05/03 03:33:01;;;;;;;5.68;2.40;;;;;;;10.87;55.22;100259.75;3165156;28;20078;-75
2023/05/03 03:34:33;;;;;;;9.35;2.60;;;;;;;10.88;55.44;100260.59;3165237;28;20157;-76
2023/05/03 03:36:06;;;;;;;6.30;2.83;;;;;;;10.89;55.46;100267.53;3162854;28;20056;-75
2023/05/03 03:37:39;;;;;;;4.40;2.22;;;;;;;10.83;55.48;100265.16;3156095;28;20105;-75
2023/05/03 03:39:11;;;;;;;6.28;2.53;;;;;;;10.83;55.69;100276.44;3151525;28;20048;-75
2023/05/03 03:40:42;;;;;;;6.35;2.67;;;;;;;10.79;55.91;100282.66;3159899;28;20061;-74
2023/05/03 03:42:15;;;;;;;4.28;2.40;;;;;;;10.77;56.03;100276.66;3164651;28;20051;-74
2023/05/03 03:43:48;;;;;;;6.55;2.50;;;;;;;10.76;56.11;100292.34;3161341;28;20453;-74
2023/05/03 03:45:19;;;;;;;;;;;;;;;10.65;56.20;100288.41;3159942;28;20101;-74
2023/05/03 03:46:51;;;;;;;9.43;2.53;;;;;;;10.62;56.84;100296.34;3156501;28;20023;-74
2023/05/03 03:48:22;;;;;;;6.35;2.67;;;;;;;10.64;56.81;100302.31;3156811;28;20138;-74
2023/05/03 03:49:54;;;;;;;8.02;2.67;;;;;;;10.64;56.88;100293.66;3164557;28;20063;-75
2023/05/03 03:51:26;;;;;;;5.30;2.67;;;;;;;10.66;56.76;100286.66;3156586;28;20396;-76
2023/05/03 03:52:57;;;;;;;8.98;3.10;;;;;;;10.64;57.22;100288.44;3153823;28;20044;-74
2023/05/03 03:54:29;;;;;;;7.07;2.75;;;;;;;10.64;57.38;100289.28;3152710;28;20080;-74
2023/05/03 03:56:01;;;;;;;8.25;3.15;;;;;;;10.59;57.57;100288.63;3161448;28;20074;-74
2023/05/03 03:57:33;;;;;;;4.97;2.40;;;;;;;10.26;57.27;100236.00;3164788;28;20058;-74
2023/05/03 03:59:07;;;;;;;5.18;2.70;;;;;;;10.64;57.20;100304.06;3152549;28;20040;-74
2023/05/03 04:00:39;;;;;;;9.40;3.17;;;;;;;10.64;57.60;100310.13;3154264;28;20055;-76
2023/05/03 04:02:11;;;;;;;4.88;2.70;;;;;;;10.67;57.63;100311.78;3157778;28;20260;-77
2023/05/03 04:03:46;;;;;;;9.02;3.00;;;;;;;10.62;57.66;100298.09;3164746;28;20055;-77
2023/05/03 04:05:18;;;;;;;4.88;3.13;;;;;;;10.70;57.44;100296.88;3164257;28;20059;-77
2023/05/03 04:06:49;;;;;;;5.13;2.58;;;;;;;10.74;57.55;100296.75;3157237;28;20047;-81
2023/05/03 04:08:21;;;;;;;9.40;3.17;;;;;;;10.73;58.02;100308.09;3165916;28;20457;-77
2023/05/03 04:09:55;;;;;;;5.32;2.85;;;;;;;10.74;57.94;100312.38;3160792;28;20047;-78
2023/05/03 04:11:27;;;;;;;3.75;2.95;;;;;;;10.74;58.47;100315.00;3164308;28;20055;-78
2023/05/03 04:12:59;;;;;;;6.95;3.22;;;;;;;10.75;58.47;100316.72;3161413;28;20490;-73
2023/05/03 04:14:32;;;;;;;6.65;2.65;;;;;;;10.76;58.59;100315.78;3161426;28;20055;-74
2023/05/03 04:16:04;;;;;;;;;;;;;;;10.73;58.28;100321.13;3164869;28;20066;-75
2023/05/03 04:17:36;;;;;;;4.57;2.63;;;;;;;10.74;58.84;100323.69;3155441;28;19956;-70
2023/05/03 04:19:08;;;;;;;5.63;3.10;;;;;;;10.79;58.83;100329.53;3162818;28;20059;-70
2023/05/03 04:20:40;;;;;;;6.78;3.45;;;;;;;10.80;59.35;100325.22;3161327;28;20052;-68
2023/05/03 04:22:12;;;;;;;4.85;3.28;;;;;;;10.85;59.39;100339.72;3155723;28;20051;-75
2023/05/03 04:23:44;;;;;;;291.55;134.23;;;;;;;10.79;59.38;100331.31;3151248;28;20055;-76
2023/05/03 04:25:16;;;;;;;13.98;7.93;;;;;;;10.85;59.51;100350.16;3161584;28;20108;-73
2023/05/03 04:26:50;;;;;;;12.80;7.45;;;;;;;10.90;59.35;100357.81;3163511;28;20051;-73
2023/05/03 04:28:22;;;;;;;30.15;15.82;;;;;;;10.88;59.67;100355.28;3156622;28;20093;-72
2023/05/03 04:29:56;;;;;;;32.70;15.52;;;;;;;10.88;59.74;100359.63;3164260;28;20091;-73
2023/05/03 04:31:28;;;;;;;11.50;5.45;;;;;;;10.92;59.86;100371.66;3164608;28;20525;-76
2023/05/03 04:33:02;;;;;;;8.73;3.95;;;;;;;10.91;60.22;100377.75;3164020;28;20668;-70
2023/05/03 04:34:34;;;;;;;9.63;3.90;;;;;;;10.90;60.36;100395.13;3162152;28;20062;-74
2023/05/03 04:36:09;;;;;;;7.60;4.67;;;;;;;10.89;60.37;100401.25;3158514;28;20060;-73
2023/05/03 04:37:42;;;;;;;9.77;4.00;;;;;;;10.85;60.73;100402.25;3154776;28;20321;-78
2023/05/03 04:39:14;;;;;;;7.28;3.50;;;;;;;10.77;61.38;100395.66;3149169;28;20131;-69
2023/05/03 04:40:46;;;;;;;7.75;3.63;;;;;;;10.63;61.51;100376.16;3155746;28;20070;-71
2023/05/03 04:42:18;;;;;;;8.48;3.33;;;;;;;10.84;61.49;100407.56;3163841;28;20139;-72
2023/05/03 04:43:50;;;;;;;8.07;3.33;;;;;;;10.64;61.80;100383.06;3161546;28;20070;-72
2023/05/03 04:45:25;;;;;;;7.90;3.35;;;;;;;10.78;61.95;100411.22;3164153;28;20484;-71
2023/05/03 04:46:58;;;;;;;10.93;3.83;;;;;;;10.78;62.29;100415.59;3163747;28;20052;-72
2023/05/03 04:48:30;;;;;;;5.10;3.58;;;;;;;10.69;62.94;100408.97;3164407;28;20062;-71
2023/05/03 04:50:02;;;;;;;7.65;4.40;;;;;;;10.70;63.05;100408.88;3164423;28;20418;-71
2023/05/03 04:51:34;;;;;;;10.02;5.50;;;;;;;10.67;63.18;100398.56;3158706;28;20616;-71
2023/05/03 04:53:05;;;;;;;9.98;4.45;;;;;;;10.74;63.24;100406.16;3162823;28;20044;-70
2023/05/03 04:54:37;;;;;;;10.55;5.10;;;;;;;10.72;63.57;100414.06;3152654;28;20192;-74
2023/05/03 04:56:09;;;;;;;9.40;6.03;;;;;;;10.66;64.03;100416.88;3153377;28;20058;-74
2023/05/03 04:57:42;;;;;;;38.83;17.70;;;;;;;10.64;64.22;100423.88;3150009;28;20599;-79
2023/05/03 04:59:14;;;;;;;29.10;14.43;;;;;;;10.62;64.06;100425.72;3155497;28;20101;-75
2023/05/03 05:00:49;;;;;;;10.98;5.43;;;;;;;10.62;64.29;100434.38;3162423;28;20051;-74
2023/05/03 05:02:21;;;;;;;30.58;10.65;;;;;;;10.60;64.54;100430.97;3166895;28;20058;-71
2023/05/03 05:03:54;;;;;;;21.88;7.47;;;;;;;10.59;64.96;100431.88;3159089;28;20060;-76
2023/05/03 05:05:26;;;;;;;12.90;5.33;;;;;;;10.57;65.66;100433.69;3164493;28;20509;-71
2023/05/03 05:06:59;;;;;;;14.77;5.30;;;;;;;10.58;65.43;100440.56;3166439;28;20107;-72
2023/05/03 05:08:31;;;;;;;11.40;5.20;;;;;;;10.53;66.06;100442.53;3166829;28;20082;-71
2023/05/03 05:10:03;;;;;;;14.13;6.18;;;;;;;10.53;66.26;100447.72;3165956;28;20051;-72
2023/05/03 05:11:36;;;;;;;14.20;7.53;;;;;;;10.53;66.51;100450.34;3166508;28;20051;-71
2023/05/03 05:13:08;;;;;;;19.53;7.23;;;;;;;10.32;66.96;100417.19;3162056;28;20113;-71
2023/05/03 05:14:40;;;;;;;16.85;7.75;;;;;;;10.44;67.17;100435.88;3163152;28;20324;-70
2023/05/03 05:16:41;;;;;;;16.20;7.38;;;;;;;10.52;67.17;100448.59;3165008;28;20055;-70
2023/05/03 05:18:19;;;;;;;18.90;8.98;;;;;;;10.53;67.12;100455.53;3165537;28;20132;-72
2023/05/03 05:20:07;;;;;;;14.65;8.20;;;;;;;10.55;67.59;100453.72;3163966;28;20195;-75
2023/05/03 05:21:39;;;;;;;18.98;8.40;;;;;;;10.55;67.61;100445.91;3163837;28;20059;-76
2023/05/03 05:23:11;;;;;;;18.63;7.68;;;;;;;10.60;68.04;100445.75;3166406;28;20043;-76
2023/05/03 05:24:43;;;;;;;18.25;7.50;;;;;;;10.62;68.15;100444.78;3151254;28;20149;-71
2023/05/03 05:26:15;;;;;;;17.05;7.72;;;;;;;10.66;68.07;100437.72;3160238;28;20152;-69
2023/05/03 05:27:47;;;;;;;16.50;8.10;;;;;;;10.67;68.56;100442.84;3170327;28;20108;-69
2023/05/03 05:29:19;;;;;;;11.60;6.38;;;;;;;10.67;68.71;100439.41;3164164;28;20047;-70
2023/05/03 05:30:51;;;;;;;16.52;7.22;;;;;;;10.65;68.77;100442.09;3171761;28;20480;-70
2023/05/03 05:32:24;;;;;;;9.35;5.00;;;;;;;10.64;68.55;100437.75;3171848;28;20502;-73
2023/05/03 05:33:56;;;;;;;8.85;5.15;;;;;;;10.62;68.61;100434.38;3171155;28;20502;-74
2023/05/03 05:35:29;;;;;;;9.75;4.82;;;;;;;10.62;69.10;100428.31;3166269;28;20051;-72
2023/05/03 05:37:01;;;;;;;10.15;4.80;;;;;;;10.64;68.97;100431.69;3171405;28;20054;-70
2023/05/03 05:38:33;;;;;;;8.73;4.97;;;;;;;10.54;69.27;100410.34;3155948;28;20059;-70
2023/05/03 05:40:07;;;;;;;10.13;5.43;;;;;;;10.65;69.04;100436.88;3171057;28;20052;-70
2023/05/03 05:41:39;;;;;;;7.68;4.35;;;;;;;10.65;69.07;100430.81;3170863;28;20055;-73
2023/05/03 05:43:11;;;;;;;8.95;4.75;;;;;;;10.62;69.34;100417.91;3149704;28;20040;-71
2023/05/03 05:44:43;;;;;;;8.50;4.88;;;;;;;10.59;69.28;100413.66;3156723;28;20540;-73
2023/05/03 05:46:15;;;;;;;11.88;5.10;;;;;;;10.64;69.43;100429.09;3170075;28;20047;-72
2023/05/03 05:47:49;;;;;;;13.98;5.80;;;;;;;10.66;69.31;100430.75;3170543;28;20059;-72
2023/05/03 05:49:22;;;;;;;9.10;5.97;;;;;;;10.68;69.39;100431.56;3169844;28;20047;-69
2023/05/03 05:50:54;;;;;;;9.63;5.53;;;;;;;10.68;69.74;100426.34;3171342;28;20124;-77
2023/05/03 05:52:26;;;;;;;14.07;5.97;;;;;;;10.71;69.66;100420.19;3171273;28;20054;-71
2023/05/03 05:53:58;;;;;;;11.95;5.70;;;;;;;10.74;69.57;100419.19;3163012;28;20571;-70
2023/05/03 05:55:30;;;;;;;10.80;6.18;;;;;;;10.76;69.59;100420.00;3168860;28;20048;-69
2023/05/03 05:57:02;;;;;;;8.63;5.13;;;;;;;10.77;69.98;100412.16;3159273;28;20055;-72
2023/05/03 05:58:36;;;;;;;10.30;5.35;;;;;;;10.78;69.94;100415.59;3159509;28;20501;-73
2023/05/03 06:00:13;;;;;;;;;;;;;;;10.71;69.83;100407.16;3162320;28;20056;-72
2023/05/03 06:01:45;;;;;;;12.55;6.20;;;;;;;10.71;70.41;100414.97;3161117;28;19992;-72
2023/05/03 06:03:18;;;;;;;16.58;6.22;;;;;;;10.75;70.59;100411.34;3161169;28;20149;-71
2023/05/03 06:04:50;;;;;;;;;;;;;;;10.72;70.01;100416.66;3159813;28;20100;-75
2023/05/03 06:06:23;;;;;;;11.27;5.70;;;;;;;10.76;70.70;100417.41;3160118;28;19930;-73
2023/05/03 06:07:55;;;;;;;12.48;6.00;;;;;;;10.78;70.45;100413.81;3171228;28;20158;-76
2023/05/03 06:09:27;;;;;;;12.75;6.55;;;;;;;10.80;70.53;100417.25;3169547;28;20062;-73
2023/05/03 06:11:00;;;;;;;16.65;7.35;;;;;;;10.86;70.63;100408.34;3171109;28;20052;-74
2023/05/03 06:12:32;;;;;;;12.77;6.20;;;;;;;10.91;70.61;100415.09;3170662;28;20052;-74
2023/05/03 06:14:08;;;;;;;14.40;6.38;;;;;;;10.97;70.72;100413.16;3159505;28;20837;-76
2023/05/03 06:15:41;;;;;;;12.32;5.38;;;;;;;11.03;70.75;100411.19;3166927;28;20047;-73
2023/05/03 06:17:13;;;;;;;14.93;5.45;;;;;;;11.07;70.81;100410.16;3169910;28;20143;-73
2023/05/03 06:18:46;;;;;;;12.45;5.30;;;;;;;11.13;70.52;100416.91;3169583;28;20074;-74
2023/05/03 06:20:18;;;;;;;;;;;;;;;11.05;70.44;100424.16;3160898;28;20539;-74
2023/05/03 06:21:50;;;;;;;10.65;5.25;;;;;;;11.00;70.47;100420.84;3151961;28;19934;-74
2023/05/03 06:23:22;;;;;;;10.75;4.90;;;;;;;11.03;70.50;100421.63;3158139;28;20040;-77
2023/05/03 06:24:55;;;;;;;14.38;5.43;;;;;;;10.82;70.90;100383.28;3163356;28;20039;-72
2023/05/03 06:26:27;;;;;;;12.27;5.30;;;;;;;11.06;71.08;100420.63;3170695;28;20056;-73
2023/05/03 06:27:59;;;;;;;13.20;6.03;;;;;;;11.06;70.88;100418.03;3168132;28;20051;-75
2023/05/03 06:29:32;;;;;;;11.00;5.10;;;;;;;11.12;71.07;100420.41;3160897;28;20047;-80
2023/05/03 06:31:05;;;;;;;11.30;5.25;;;;;;;10.93;70.81;100384.59;3166253;28;20134;-77
2023/05/03 06:32:39;;;;;;;11.55;5.90;;;;;;;11.19;71.44;100408.84;3170268;28;20101;-79
2023/05/03 06:34:12;;;;;;;11.05;5.88;;;;;;;11.21;71.63;100398.34;3166546;28;20036;-74
2023/05/03 06:35:45;;;;;;;10.98;5.78;;;;;;;11.35;71.72;100409.09;3169961;28;20055;-72
2023/05/03 06:37:18;;;;;;;11.85;5.30;;;;;;;11.38;71.42;100406.38;3169680;28;20051;-76
2023/05/03 06:38:50;;;;;;;11.45;5.00;;;;;;;11.38;71.11;100398.53;3154235;28;20044;-73
2023/05/03 06:40:24;;;;;;;11.23;4.65;;;;;;;11.39;71.03;100395.06;3162816;28;20044;-74
2023/05/03 06:41:56;;;;;;;9.82;4.88;;;;;;;11.39;70.90;100397.66;3170210;28;20047;-74
2023/05/03 06:43:29;;;;;;;8.27;4.97;;;;;;;11.41;70.82;100401.03;3167314;28;20051;-74
2023/05/03 06:45:01;;;;;;;7.83;4.57;;;;;;;11.45;70.79;100397.41;3170258;28;20075;-72
2023/05/03 06:46:33;;;;;;;8.15;4.88;;;;;;;11.32;70.73;100365.72;3170845;28;20048;-75
2023/05/03 06:48:06;;;;;;;9.68;5.30;;;;;;;11.57;70.84;100389.09;3170542;28;20104;-75
2023/05/03 06:49:40;;;;;;;10.82;4.25;;;;;;;11.69;70.68;100399.97;3158876;28;20083;-76
2023/05/03 06:51:11;;;;;;;;;;;;;;;11.69;70.23;100395.59;3168992;28;20067;-74
2023/05/03 06:52:43;;;;;;;9.65;5.13;;;;;;;11.73;70.48;100391.09;3158381;28;19924;-76
2023/05/03 06:54:15;;;;;;;10.98;4.97;;;;;;;11.79;70.55;100385.63;3167946;28;20097;-76
2023/05/03 06:55:47;;;;;;;9.38;5.25;;;;;;;11.85;70.69;100382.78;3170630;28;20433;-76
2023/05/03 06:57:20;;;;;;;8.55;4.78;;;;;;;11.91;70.49;100379.94;3164881;28;20499;-75
2023/05/03 06:58:52;;;;;;;13.60;5.07;;;;;;;12.01;70.25;100372.59;3155576;28;20173;-72
2023/05/03 07:00:26;;;;;;;8.82;4.70;;;;;;;11.93;70.06;100340.72;3168072;28;20044;-76
2023/05/03 07:01:58;;;;;;;8.95;4.85;;;;;;;12.23;69.33;100386.41;3169518;28;20532;-76
2023/05/03 07:03:30;;;;;;;11.32;4.82;;;;;;;12.27;69.23;100380.16;3170447;28;20138;-75
2023/05/03 07:05:05;;;;;;;8.95;4.43;;;;;;;12.37;69.50;100374.53;3164442;28;20136;-72
2023/05/03 07:06:37;;;;;;;8.27;4.90;;;;;;;12.47;68.99;100378.44;3170092;28;20047;-73
2023/05/03 07:08:09;;;;;;;12.57;7.38;;;;;;;12.63;69.32;100375.97;3155008;28;20048;-73
2023/05/03 07:09:42;;;;;;;31.38;18.40;;;;;;;12.74;69.01;100382.44;3169871;28;20048;-74
2023/05/03 07:11:14;;;;;;;41.92;24.20;;;;;;;12.85;68.63;100384.56;3170347;28;20128;-76